Letzte 24h
Datum & Zeit Temp. Luft-
feuchte
Wind Nieder-
schlag
Luftdruck Tendenz
IN OUT IN OUT Richtung Min. Max.
2020.03.29 20:57 11.6 °C 7.4 °C 34% 49% NW 320 ° 12 km/h 22 km/h 0.0 mm 1019.90 hPa steigend
21:57 10.9 °C 6.6 °C 38% 53% NW 314 ° 13 km/h 27 km/h 0.0 mm 1020.30 hPa steigend
22:57 10.5 °C 6.0 °C 40% 58% NW 324 ° 12 km/h 26 km/h 0.0 mm 1021.10 hPa steigend
23:57 10.2 °C 5.6 °C 41% 62% WNW 294 ° 11 km/h 22 km/h 0.0 mm 1021.50 hPa steigend
2020.03.30 00:57 9.9 °C 5.2 °C 43% 65% NW 310 ° 11 km/h 22 km/h 0.0 mm 1021.70 hPa langsam steigend
01:57 9.6 °C 4.5 °C 45% 73% NW 309 ° 12 km/h 26 km/h 0.0 mm 1022.20 hPa langsam steigend
02:57 9.1 °C 3.3 °C 45% 68% NW 304 ° 14 km/h 32 km/h 0.0 mm 1022.40 hPa langsam steigend
03:57 8.6 °C 2.7 °C 43% 60% NW 317 ° 13 km/h 26 km/h 0.0 mm 1022.90 hPa langsam steigend
04:57 7.9 °C 2.2 °C 41% 62% NW 321 ° 15 km/h 26 km/h 0.0 mm 1023.00 hPa langsam steigend
05:57 7.3 °C 1.9 °C 41% 61% NW 318 ° 20 km/h 36 km/h 0.0 mm 1023.70 hPa langsam steigend
06:57 7.0 °C 0.9 °C 40% 60% NNW 327 ° 20 km/h 34 km/h 0.0 mm 1024.30 hPa langsam steigend
07:57 6.5 °C 0.6 °C 40% 56% NNW 331 ° 18 km/h 32 km/h 0.0 mm 1024.80 hPa steigend
08:57 6.3 °C 1.5 °C 39% 50% NNW 344 ° 17 km/h 30 km/h 0.0 mm 1025.20 hPa langsam steigend
09:57 6.5 °C 2.1 °C 35% 39% NNW 331 ° 20 km/h 36 km/h 0.0 mm 1025.60 hPa langsam steigend
10:57 6.8 °C 1.7 °C 34% 39% NNW 344 ° 17 km/h 31 km/h 0.0 mm 1025.60 hPa langsam steigend
11:57 7.2 °C 2.7 °C 33% 29% NW 322 ° 14 km/h 23 km/h 0.0 mm 1025.20 hPa gleichbleibend
12:57 8.1 °C 4.5 °C 33% 25% NNW 335 ° 15 km/h 27 km/h 0.0 mm 1025.00 hPa langsam fallend
13:57 9.4 °C 5.5 °C 33% 23% NW 312 ° 10 km/h 23 km/h 0.0 mm 1024.50 hPa langsam fallend
14:57 10.3 °C 6.6 °C 30% 22% NNW 343 ° 15 km/h 22 km/h 0.0 mm 1024.40 hPa langsam fallend
15:57 10.9 °C 6.1 °C 30% 20% NW 324 ° 10 km/h 22 km/h 0.0 mm 1024.10 hPa langsam fallend
16:57 11.1 °C 6.1 °C 27% 20% NW 312 ° 9 km/h 19 km/h 0.0 mm 1023.80 hPa langsam fallend
17:57 10.9 °C 6.0 °C 26% 20% NNW 335 ° 11 km/h 17 km/h 0.0 mm 1024.00 hPa langsam fallend
18:57 10.3 °C 5.5 °C 27% 22% NW 321 ° 9 km/h 19 km/h 0.0 mm 1024.20 hPa langsam steigend
19:57 9.4 °C 2.7 °C 29% 24% NW 316 ° 4 km/h 16 km/h 0.0 mm 1024.70 hPa langsam steigend

 

Verlauf: letzte 24h
WIND   Windrose
(Klicke ins Bild, um den Hintergrund abzuschalten)
WIND   Windverkauf 2.5h
TEMP   Temperatur 2.5h
Druck   Luftdruck 2.5h
Regen   Luftdruck 2.5h